Time;durP1;ratioP1;P1;durP2;ratioP2;P2;SDS_P1;SDS_P2;PMS_P1;PMS_P2;Temp;Humidity;BMP_temperature;BMP_pressure;BME280_temperature;BME280_humidity;BME280_pressure;Samples;Min_cycle;Max_cycle;Signal;HPM_P1;HPM_P2
2023/12/17 00:01:18;;;;;;;40.08;25.77;;;10.40;99.90;;;;;;5043696;28;20725;-69
2023/12/17 00:03:45;;;;;;;40.00;27.42;;;10.40;99.90;;;;;;5047575;28;20337;-72
2023/12/17 00:06:12;;;;;;;36.78;24.77;;;10.50;99.90;;;;;;5045079;28;20266;-69
2023/12/17 00:08:41;;;;;;;35.05;23.80;;;10.50;99.90;;;;;;5041649;28;20238;-71
2023/12/17 00:11:07;;;;;;;33.15;24.30;;;10.50;99.90;;;;;;5053209;28;20200;-68
2023/12/17 00:13:35;;;;;;;33.65;25.05;;;10.50;99.90;;;;;;5049032;28;20247;-67
2023/12/17 00:16:04;;;;;;;27.50;21.40;;;10.50;99.90;;;;;;5044302;28;20291;-69
2023/12/17 00:18:32;;;;;;;28.33;21.92;;;10.60;99.90;;;;;;5037333;28;20244;-73
2023/12/17 00:20:59;;;;;;;29.90;22.33;;;10.60;99.90;;;;;;5049014;28;20632;-68
2023/12/17 00:23:26;;;;;;;32.78;22.98;;;10.60;99.90;;;;;;5038529;28;20201;-71
2023/12/17 00:25:53;;;;;;;32.17;24.67;;;10.60;99.90;;;;;;5034644;28;20208;-71
2023/12/17 00:28:20;;;;;;;27.25;21.25;;;10.60;99.90;;;;;;5042953;28;20221;-69
2023/12/17 00:30:47;;;;;;;27.83;21.70;;;10.60;99.90;;;;;;5042606;28;20203;-69
2023/12/17 00:33:15;;;;;;;24.33;19.10;;;10.60;99.90;;;;;;5033904;28;20240;-70
2023/12/17 00:35:42;;;;;;;22.98;17.35;;;10.60;99.90;;;;;;5034931;28;20213;-71
2023/12/17 00:38:09;;;;;;;25.38;18.65;;;10.60;99.90;;;;;;5035311;28;20354;-71
2023/12/17 00:40:36;;;;;;;26.90;18.67;;;10.60;99.90;;;;;;5032603;28;20208;-68
2023/12/17 00:43:04;;;;;;;21.27;17.13;;;10.60;99.90;;;;;;5033168;28;20262;-68
2023/12/17 00:45:31;;;;;;;21.45;17.58;;;10.70;99.90;;;;;;5039978;28;20195;-69
2023/12/17 00:47:58;;;;;;;31.50;16.85;;;10.70;99.90;;;;;;5035822;28;20224;-72
2023/12/17 00:50:26;;;;;;;21.65;16.38;;;10.70;99.90;;;;;;5039560;28;20205;-69
2023/12/17 00:52:52;;;;;;;27.35;17.30;;;10.60;99.90;;;;;;5033826;28;20266;-69
2023/12/17 00:55:19;;;;;;;22.90;18.10;;;10.70;99.90;;;;;;5038142;28;20196;-67
2023/12/17 00:57:46;;;;;;;19.42;15.93;;;10.70;99.90;;;;;;5033960;28;20521;-69
2023/12/17 01:00:14;;;;;;;18.35;14.40;;;10.70;99.90;;;;;;5036351;28;20200;-71
2023/12/17 01:02:41;;;;;;;17.83;14.73;;;10.80;99.90;;;;;;5033593;28;20228;-70
2023/12/17 01:05:09;;;;;;;14.43;12.73;;;10.80;99.90;;;;;;5038315;28;20208;-72
2023/12/17 01:07:37;;;;;;;17.75;14.35;;;10.90;99.90;;;;;;5037096;28;20232;-71
2023/12/17 01:10:05;;;;;;;19.25;13.98;;;10.90;99.90;;;;;;5033489;28;20247;-69
2023/12/17 01:12:32;;;;;;;15.98;11.60;;;10.90;99.90;;;;;;5037859;28;20210;-71
2023/12/17 01:14:59;;;;;;;14.15;11.75;;;10.80;99.90;;;;;;5039020;28;20249;-69
2023/12/17 01:17:26;;;;;;;18.40;11.77;;;10.80;99.90;;;;;;5034934;28;20267;-69
2023/12/17 01:19:53;;;;;;;13.55;12.18;;;10.80;99.90;;;;;;5034190;28;20237;-69
2023/12/17 01:22:20;;;;;;;16.20;13.10;;;10.80;99.90;;;;;;5034438;28;20235;-69
2023/12/17 01:24:52;;;;;;;13.35;11.30;;;10.80;99.90;;;;;;5037406;28;20231;-67
2023/12/17 01:27:19;;;;;;;12.32;11.02;;;10.80;99.90;;;;;;5035383;28;20224;-69
2023/12/17 01:29:46;;;;;;;13.52;10.13;;;10.80;99.90;;;;;;5035145;28;20243;-69
2023/12/17 01:32:13;;;;;;;13.10;10.77;;;10.90;99.90;;;;;;5042391;28;20200;-70
2023/12/17 01:34:40;;;;;;;17.40;12.68;;;10.80;99.90;;;;;;5036090;28;20293;-71
2023/12/17 01:37:07;;;;;;;15.60;10.27;;;10.80;99.90;;;;;;5036424;28;20264;-68
2023/12/17 01:39:34;;;;;;;14.43;10.73;;;10.80;99.90;;;;;;5038656;28;20595;-67
2023/12/17 01:42:02;;;;;;;10.75;9.65;;;10.80;99.90;;;;;;5043683;28;20549;-71
2023/12/17 01:44:29;;;;;;;13.23;9.95;;;10.80;99.90;;;;;;5037898;28;20277;-67
2023/12/17 01:46:57;;;;;;;17.60;9.63;;;10.80;99.90;;;;;;5034609;28;20255;-71
2023/12/17 01:49:24;;;;;;;16.73;11.75;;;10.80;99.90;;;;;;5039187;28;20274;-70
2023/12/17 01:51:51;;;;;;;10.95;9.85;;;10.80;99.90;;;;;;5039153;28;20241;-73
2023/12/17 01:54:19;;;;;;;12.05;10.27;;;10.80;99.90;;;;;;5042011;28;20646;-70
2023/12/17 01:56:46;;;;;;;15.52;10.27;;;10.80;99.90;;;;;;5039034;28;20291;-72
2023/12/17 01:59:14;;;;;;;10.20;8.85;;;10.80;99.90;;;;;;5040725;28;20227;-69
2023/12/17 02:01:43;;;;;;;10.57;8.85;;;10.80;99.90;;;;;;5043447;28;20232;-72
2023/12/17 02:04:11;;;;;;;11.27;10.07;;;10.90;99.90;;;;;;5044491;28;20252;-68
2023/12/17 02:06:38;;;;;;;12.10;10.85;;;10.90;99.90;;;;;;5043527;28;20573;-69
2023/12/17 02:09:05;;;;;;;11.15;9.70;;;10.80;99.90;;;;;;5037943;28;20584;-71
2023/12/17 02:11:33;;;;;;;10.23;9.10;;;10.80;99.90;;;;;;5036723;28;20243;-69
2023/12/17 02:13:59;;;;;;;11.73;9.60;;;10.90;99.90;;;;;;5036335;28;20275;-71
2023/12/17 02:16:28;;;;;;;10.82;9.73;;;10.90;99.90;;;;;;5040031;28;20690;-69
2023/12/17 02:18:58;;;;;;;14.57;10.32;;;10.90;99.90;;;;;;5036848;28;20200;-70
2023/12/17 02:21:25;;;;;;;11.98;9.90;;;10.80;99.90;;;;;;5036959;28;20228;-69
2023/12/17 02:23:54;;;;;;;14.65;10.95;;;10.80;99.90;;;;;;5035415;28;20638;-70
2023/12/17 02:26:21;;;;;;;10.20;9.20;;;10.80;99.90;;;;;;5041929;28;20252;-69
2023/12/17 02:28:48;;;;;;;16.38;10.65;;;10.90;99.90;;;;;;5036803;28;20692;-72
2023/12/17 02:31:15;;;;;;;15.40;11.32;;;10.90;99.90;;;;;;5036991;28;20228;-69
2023/12/17 02:33:42;;;;;;;11.63;10.13;;;10.90;99.90;;;;;;5036585;28;20642;-73
2023/12/17 02:36:12;;;;;;;15.20;10.48;;;10.90;99.90;;;;;;5041692;28;20217;-69
2023/12/17 02:38:39;;;;;;;15.70;10.60;;;10.90;99.90;;;;;;5048304;28;20236;-71
2023/12/17 02:41:08;;;;;;;12.32;10.50;;;10.90;99.90;;;;;;5041035;28;20317;-70
2023/12/17 02:43:35;;;;;;;11.52;9.15;;;10.90;99.90;;;;;;5034799;28;20259;-71
2023/12/17 02:46:02;;;;;;;13.68;9.60;;;10.90;99.90;;;;;;5035312;28;20604;-72
2023/12/17 02:48:29;;;;;;;11.63;10.15;;;10.90;99.90;;;;;;5035210;28;20244;-68
2023/12/17 02:50:55;;;;;;;15.98;10.48;;;11.00;99.90;;;;;;5035227;28;20228;-66
2023/12/17 02:53:22;;;;;;;10.95;9.85;;;11.00;99.90;;;;;;5034219;28;20698;-71
2023/12/17 02:55:49;;;;;;;14.68;10.32;;;10.90;99.90;;;;;;5038439;28;20545;-69
2023/12/17 02:58:18;;;;;;;12.15;10.07;;;10.90;99.90;;;;;;5035345;28;20580;-69
2023/12/17 03:00:46;;;;;;;9.88;8.88;;;10.90;99.90;;;;;;5035873;28;20209;-69
2023/12/17 03:03:13;;;;;;;14.43;10.00;;;10.90;99.90;;;;;;5043003;28;20211;-68
2023/12/17 03:05:40;;;;;;;16.27;10.23;;;10.90;99.90;;;;;;5038540;28;20349;-71
2023/12/17 03:08:07;;;;;;;9.30;8.30;;;10.80;99.90;;;;;;5034737;28;20376;-68
2023/12/17 03:10:34;;;;;;;11.20;9.10;;;10.80;99.90;;;;;;5039687;28;20206;-71
2023/12/17 03:13:01;;;;;;;12.02;9.20;;;10.80;99.90;;;;;;5036102;28;20695;-68
2023/12/17 03:15:29;;;;;;;10.57;9.40;;;10.90;99.90;;;;;;5041341;28;20201;-68
2023/12/17 03:17:56;;;;;;;12.85;7.85;;;10.90;99.90;;;;;;5042246;28;20281;-70
2023/12/17 03:20:23;;;;;;;9.32;8.30;;;11.00;99.90;;;;;;5037462;28;20679;-70
2023/12/17 03:22:50;;;;;;;13.95;9.15;;;10.90;99.90;;;;;;5037444;28;20354;-69
2023/12/17 03:25:17;;;;;;;13.10;9.15;;;10.90;99.90;;;;;;5041581;28;20640;-70
2023/12/17 03:27:44;;;;;;;15.55;9.40;;;10.90;99.90;;;;;;5045688;28;20307;-71
2023/12/17 03:30:11;;;;;;;10.15;9.20;;;10.90;99.90;;;;;;5036129;28;20205;-68
2023/12/17 03:32:40;;;;;;;10.52;9.40;;;10.80;99.90;;;;;;5038733;28;20221;-69
2023/12/17 03:35:08;;;;;;;10.02;7.97;;;10.80;99.90;;;;;;5038447;28;20228;-69
2023/12/17 03:37:35;;;;;;;9.95;8.68;;;10.80;99.90;;;;;;5042826;28;20556;-69
2023/12/17 03:40:02;;;;;;;8.80;7.45;;;10.80;99.90;;;;;;5042587;28;20267;-71
2023/12/17 03:42:29;;;;;;;17.60;9.13;;;10.80;99.90;;;;;;5038883;28;20204;-68
2023/12/17 03:44:56;;;;;;;11.20;10.05;;;10.80;99.90;;;;;;5044005;28;20236;-71
2023/12/17 03:47:23;;;;;;;12.38;8.63;;;10.80;99.90;;;;;;5041132;28;20643;-68
2023/12/17 03:49:52;;;;;;;11.40;8.95;;;10.80;99.90;;;;;;5046133;28;20238;-68
2023/12/17 03:52:18;;;;;;;10.30;8.40;;;10.80;99.90;;;;;;5043774;28;20212;-67
2023/12/17 03:54:46;;;;;;;10.90;9.23;;;10.80;99.90;;;;;;5040165;28;20236;-70
2023/12/17 03:57:13;;;;;;;9.10;7.95;;;10.80;99.90;;;;;;5043029;28;20256;-69
2023/12/17 03:59:40;;;;;;;9.15;7.93;;;10.80;99.90;;;;;;5042217;28;20197;-70
2023/12/17 04:02:06;;;;;;;10.82;8.57;;;10.80;99.90;;;;;;5042276;28;20220;-70
2023/12/17 04:04:33;;;;;;;10.65;8.68;;;10.90;99.90;;;;;;5041740;28;20290;-68
2023/12/17 04:07:02;;;;;;;12.00;8.35;;;10.90;99.90;;;;;;5038045;28;20220;-70
2023/12/17 04:09:29;;;;;;;12.65;8.68;;;10.80;99.90;;;;;;5047246;28;20304;-70
2023/12/17 04:11:56;;;;;;;9.93;8.50;;;10.90;99.90;;;;;;5043060;28;20240;-69
2023/12/17 04:14:24;;;;;;;8.57;7.65;;;10.80;99.90;;;;;;5042565;28;20649;-68
2023/12/17 04:16:51;;;;;;;10.68;8.10;;;10.90;99.90;;;;;;5035703;28;20259;-69
2023/12/17 04:19:18;;;;;;;9.82;7.88;;;10.90;99.90;;;;;;5050553;28;20200;-68
2023/12/17 04:21:45;;;;;;;9.98;8.82;;;10.90;99.90;;;;;;5041907;28;20501;-69
2023/12/17 04:24:13;;;;;;;12.77;7.95;;;10.90;99.90;;;;;;5034421;28;20316;-72
2023/12/17 04:26:40;;;;;;;11.38;8.77;;;10.90;99.90;;;;;;5046862;28;20263;-70
2023/12/17 04:29:07;;;;;;;13.07;8.70;;;10.90;99.90;;;;;;5042181;28;20220;-71
2023/12/17 04:31:34;;;;;;;11.57;8.20;;;10.90;99.90;;;;;;5039514;28;20227;-67
2023/12/17 04:34:01;;;;;;;8.45;7.65;;;10.90;99.90;;;;;;5036247;28;20238;-70
2023/12/17 04:36:28;;;;;;;19.85;10.88;;;10.90;99.90;;;;;;5043437;28;20227;-67
2023/12/17 04:38:55;;;;;;;13.40;8.77;;;10.90;99.90;;;;;;5047982;28;20697;-70
2023/12/17 04:41:23;;;;;;;13.70;8.43;;;10.80;99.90;;;;;;5039276;28;20651;-69
2023/12/17 04:43:50;;;;;;;9.93;8.85;;;10.80;99.90;;;;;;5050302;28;20203;-69
2023/12/17 04:46:17;;;;;;;9.93;8.15;;;10.80;99.90;;;;;;5037084;28;20319;-70
2023/12/17 04:48:44;;;;;;;14.07;8.48;;;10.90;99.90;;;;;;5034456;28;20220;-69
2023/12/17 04:51:11;;;;;;;10.43;8.30;;;10.90;99.90;;;;;;5041630;28;20251;-69
2023/12/17 04:53:38;;;;;;;15.85;9.68;;;11.00;99.90;;;;;;5045164;28;20342;-69
2023/12/17 04:56:06;;;;;;;9.45;8.45;;;10.90;99.90;;;;;;5032924;28;20223;-71
2023/12/17 04:58:34;;;;;;;9.95;8.15;;;11.00;99.90;;;;;;5038328;28;20200;-70
2023/12/17 05:01:01;;;;;;;10.05;8.93;;;10.90;99.90;;;;;;5041273;28;20209;-71
2023/12/17 05:03:28;;;;;;;11.57;9.40;;;10.90;99.90;;;;;;5037238;28;20223;-68
2023/12/17 05:05:55;;;;;;;11.00;9.80;;;10.90;99.90;;;;;;5042503;28;20569;-68
2023/12/17 05:08:22;;;;;;;14.15;9.82;;;10.90;99.90;;;;;;5033586;28;20615;-72
2023/12/17 05:10:49;;;;;;;14.05;10.45;;;10.90;99.90;;;;;;5033701;28;20208;-66
2023/12/17 05:13:16;;;;;;;12.43;11.15;;;10.90;99.90;;;;;;5035612;28;21471;-71
2023/12/17 05:15:44;;;;;;;12.65;10.73;;;10.90;99.90;;;;;;5051301;28;20239;-71
2023/12/17 05:18:11;;;;;;;14.32;10.43;;;10.90;99.90;;;;;;5046035;28;20265;-69
2023/12/17 05:20:39;;;;;;;12.65;9.50;;;10.90;99.90;;;;;;5040122;28;20604;-69
2023/12/17 05:23:06;;;;;;;13.70;10.77;;;10.90;99.90;;;;;;5033548;28;20300;-71
2023/12/17 05:25:33;;;;;;;10.98;9.60;;;10.90;99.90;;;;;;5036888;28;20294;-67
2023/12/17 05:28:00;;;;;;;11.48;9.48;;;10.90;99.90;;;;;;5034689;28;20606;-69
2023/12/17 05:30:27;;;;;;;11.75;9.32;;;10.80;99.90;;;;;;5040916;28;20244;-67
2023/12/17 05:32:55;;;;;;;11.57;9.95;;;10.90;99.90;;;;;;5034773;28;20257;-68
2023/12/17 05:35:22;;;;;;;12.13;9.77;;;10.90;99.90;;;;;;5043696;28;20199;-70
2023/12/17 05:37:49;;;;;;;17.95;10.00;;;10.90;99.90;;;;;;5040760;28;20262;-70
2023/12/17 05:40:16;;;;;;;11.38;10.27;;;10.90;99.90;;;;;;5041429;28;20202;-68
2023/12/17 05:42:43;;;;;;;17.83;10.23;;;10.90;99.90;;;;;;5038166;28;20212;-71
2023/12/17 05:45:11;;;;;;;13.32;9.27;;;11.00;99.90;;;;;;5044503;28;20228;-70
2023/12/17 05:47:39;;;;;;;11.35;10.15;;;11.00;99.90;;;;;;5039078;28;20255;-70
2023/12/17 05:50:10;;;;;;;13.45;9.20;;;10.90;99.90;;;;;;5040720;28;20229;-70
2023/12/17 05:52:37;;;;;;;11.45;8.68;;;11.00;99.90;;;;;;5035267;28;20197;-72
2023/12/17 05:55:04;;;;;;;12.45;9.82;;;10.90;99.90;;;;;;5034969;28;20248;-69
2023/12/17 05:57:31;;;;;;;14.07;10.43;;;10.90;99.90;;;;;;5043779;28;20219;-68
2023/12/17 05:59:58;;;;;;;9.48;8.57;;;10.90;99.90;;;;;;5047333;28;20611;-69
2023/12/17 06:02:25;;;;;;;11.55;9.80;;;10.90;99.90;;;;;;5037985;28;20236;-71
2023/12/17 06:04:52;;;;;;;25.52;10.25;;;11.00;99.90;;;;;;5038713;28;20235;-68
2023/12/17 06:07:21;;;;;;;13.32;8.82;;;10.90;99.90;;;;;;5035516;28;20224;-68
2023/12/17 06:09:48;;;;;;;14.00;10.45;;;10.90;99.90;;;;;;5044312;28;20221;-70
2023/12/17 06:12:15;;;;;;;11.40;10.20;;;10.80;99.90;;;;;;5043515;28;20269;-70
2023/12/17 06:14:42;;;;;;;10.45;9.43;;;10.90;99.90;;;;;;5037768;28;20291;-69
2023/12/17 06:17:09;;;;;;;12.65;9.30;;;10.90;99.90;;;;;;5047366;28;20267;-70
2023/12/17 06:19:36;;;;;;;11.18;9.40;;;10.80;99.90;;;;;;5041401;28;20216;-68
2023/12/17 06:22:04;;;;;;;14.05;11.00;;;10.90;99.90;;;;;;5045346;28;20206;-71
2023/12/17 06:24:32;;;;;;;11.90;10.70;;;10.90;99.90;;;;;;5036193;28;20205;-68
2023/12/17 06:27:00;;;;;;;11.60;10.32;;;10.90;99.90;;;;;;5037227;28;20255;-68
2023/12/17 06:29:27;;;;;;;14.77;9.95;;;10.90;99.90;;;;;;5046150;28;20637;-71
2023/12/17 06:31:54;;;;;;;16.67;10.15;;;10.90;99.90;;;;;;5048742;28;20211;-69
2023/12/17 06:34:21;;;;;;;13.55;10.88;;;10.90;99.90;;;;;;5050384;28;20693;-71
2023/12/17 06:36:48;;;;;;;12.07;9.95;;;10.90;99.90;;;;;;5055040;28;20231;-72
2023/12/17 06:39:34;;;;;;;11.27;9.73;;;10.90;99.90;;;;;;5052289;28;20232;-70
2023/12/17 06:42:01;;;;;;;11.63;10.43;;;10.90;99.90;;;;;;5039899;28;20280;-70
2023/12/17 06:44:28;;;;;;;12.43;10.68;;;10.80;99.90;;;;;;5047841;28;20269;-69
2023/12/17 06:46:55;;;;;;;13.25;10.25;;;10.90;99.90;;;;;;5044988;28;20696;-71
2023/12/17 06:49:22;;;;;;;14.63;11.50;;;10.80;99.90;;;;;;5053979;28;20255;-69
2023/12/17 06:51:49;;;;;;;14.10;10.70;;;10.80;99.90;;;;;;5041660;28;20646;-69
2023/12/17 06:54:15;;;;;;;16.17;11.55;;;10.80;99.90;;;;;;5041805;28;20279;-71
2023/12/17 06:56:44;;;;;;;17.42;10.95;;;10.90;99.90;;;;;;5049374;28;20224;-70
2023/12/17 06:59:11;;;;;;;13.38;11.68;;;10.80;99.90;;;;;;5049846;28;20539;-73
2023/12/17 07:01:40;;;;;;;16.63;11.52;;;10.80;99.90;;;;;;5044760;28;20239;-71
2023/12/17 07:04:07;;;;;;;16.88;13.38;;;10.80;99.90;;;;;;5054687;28;20276;-69
2023/12/17 07:06:36;;;;;;;12.60;11.23;;;10.80;99.90;;;;;;5054790;28;20259;-70
2023/12/17 07:09:02;;;;;;;15.05;11.88;;;10.80;99.90;;;;;;5058378;28;20257;-68
2023/12/17 07:11:30;;;;;;;11.07;10.07;;;10.80;99.90;;;;;;5049611;28;20232;-70
2023/12/17 07:13:59;;;;;;;15.00;11.75;;;10.80;99.90;;;;;;5055529;28;20203;-71
2023/12/17 07:16:28;;;;;;;12.23;10.93;;;10.80;99.90;;;;;;5048131;28;20327;-72
2023/12/17 07:18:55;;;;;;;18.25;10.82;;;10.80;99.90;;;;;;5049294;28;20798;-71
2023/12/17 07:21:22;;;;;;;14.23;11.80;;;10.80;99.90;;;;;;5050997;28;20258;-69
2023/12/17 07:23:49;;;;;;;12.30;10.77;;;10.80;99.90;;;;;;5043988;28;20259;-72
2023/12/17 07:26:16;;;;;;;16.65;11.57;;;10.70;99.90;;;;;;5048545;28;20313;-70
2023/12/17 07:28:43;;;;;;;17.20;11.45;;;10.70;99.90;;;;;;5046431;28;20244;-68
2023/12/17 07:31:14;;;;;;;12.82;9.90;;;10.70;99.90;;;;;;5044483;28;20229;-70
2023/12/17 07:33:41;;;;;;;17.85;9.50;;;10.70;99.90;;;;;;5042689;28;20247;-70
2023/12/17 07:36:09;;;;;;;12.10;10.90;;;10.70;99.90;;;;;;5060043;28;20246;-72
2023/12/17 07:38:36;;;;;;;12.80;9.60;;;10.70;99.90;;;;;;5046960;28;20282;-69
2023/12/17 07:41:04;;;;;;;14.93;12.68;;;10.70;99.90;;;;;;5044911;28;20273;-69
2023/12/17 07:43:31;;;;;;;21.75;11.30;;;10.70;99.90;;;;;;5053377;28;20196;-70
2023/12/17 07:45:58;;;;;;;13.85;12.27;;;10.70;99.90;;;;;;5050434;28;20542;-72
2023/12/17 07:48:27;;;;;;;16.63;11.45;;;10.70;99.90;;;;;;5040580;28;20192;-72
2023/12/17 07:50:55;;;;;;;12.18;10.77;;;10.70;99.90;;;;;;5045421;28;20221;-70
2023/12/17 07:53:22;;;;;;;13.02;11.27;;;10.70;99.90;;;;;;5051742;28;20204;-71
2023/12/17 07:55:50;;;;;;;14.27;10.73;;;10.70;99.90;;;;;;5039127;28;20219;-70
2023/12/17 07:58:17;;;;;;;18.05;13.70;;;10.70;99.90;;;;;;5038614;28;20220;-69
2023/12/17 08:00:44;;;;;;;12.73;11.38;;;10.70;99.90;;;;;;5040521;28;20261;-69
2023/12/17 08:03:12;;;;;;;13.55;12.15;;;10.70;99.90;;;;;;5041671;28;20200;-69
2023/12/17 08:05:40;;;;;;;12.50;11.20;;;10.70;99.90;;;;;;5039561;28;20295;-69
2023/12/17 08:08:07;;;;;;;13.65;10.68;;;10.70;99.90;;;;;;5047020;28;20739;-72
2023/12/17 08:10:34;;;;;;;13.30;11.88;;;10.70;99.90;;;;;;5035289;28;20322;-71
2023/12/17 08:13:01;;;;;;;16.38;10.85;;;10.60;99.90;;;;;;5038682;28;20232;-68
2023/12/17 08:15:28;;;;;;;12.57;11.07;;;10.60;99.90;;;;;;5044703;28;20254;-70
2023/12/17 08:17:56;;;;;;;14.65;11.75;;;10.60;99.90;;;;;;5043934;28;20714;-72
2023/12/17 08:20:23;;;;;;;12.80;11.05;;;10.60;99.90;;;;;;5035232;28;20240;-68
2023/12/17 08:22:51;;;;;;;13.93;11.23;;;10.60;99.90;;;;;;5040500;28;20206;-71
2023/12/17 08:25:18;;;;;;;14.45;11.43;;;10.70;99.90;;;;;;5037002;28;20278;-71
2023/12/17 08:27:45;;;;;;;11.55;10.38;;;10.50;99.90;;;;;;5046373;28;20668;-70
2023/12/17 08:30:13;;;;;;;15.65;10.93;;;10.60;99.90;;;;;;5041063;28;20220;-69
2023/12/17 08:32:40;;;;;;;16.90;12.43;;;10.60;99.90;;;;;;5039882;28;20658;-70
2023/12/17 08:35:07;;;;;;;13.27;11.88;;;10.60;99.90;;;;;;5039270;28;20201;-72
2023/12/17 08:37:34;;;;;;;13.13;11.13;;;10.60;99.90;;;;;;5044142;28;20232;-71
2023/12/17 08:40:03;;;;;;;13.32;11.93;;;10.60;99.90;;;;;;5049165;28;20235;-69
2023/12/17 08:42:30;;;;;;;22.20;12.85;;;10.70;99.90;;;;;;5040477;28;20211;-69
2023/12/17 08:44:57;;;;;;;16.33;12.95;;;10.80;99.90;;;;;;5045173;28;20713;-73
2023/12/17 08:47:24;;;;;;;13.50;12.20;;;10.80;99.90;;;;;;5047177;28;20564;-72
2023/12/17 08:49:51;;;;;;;15.38;13.48;;;10.80;99.90;;;;;;5041920;28;20220;-72
2023/12/17 08:52:18;;;;;;;13.90;12.55;;;10.80;99.90;;;;;;5034197;28;20208;-71
2023/12/17 08:54:45;;;;;;;15.60;14.18;;;10.80;99.90;;;;;;5034075;28;20350;-71
2023/12/17 08:57:14;;;;;;;16.20;14.18;;;10.80;99.90;;;;;;5035210;28;20220;-71
2023/12/17 08:59:44;;;;;;;17.40;15.70;;;10.70;99.90;;;;;;5044901;28;20673;-71
2023/12/17 09:02:10;;;;;;;16.17;14.07;;;10.80;99.90;;;;;;5046079;28;20204;-70
2023/12/17 09:04:39;;;;;;;15.85;14.27;;;10.80;99.90;;;;;;5047093;28;20749;-69
2023/12/17 09:07:06;;;;;;;16.83;15.13;;;10.70;99.90;;;;;;5042382;28;20444;-68
2023/12/17 09:09:33;;;;;;;18.02;14.43;;;10.70;99.90;;;;;;5036883;28;20209;-69
2023/12/17 09:12:00;;;;;;;17.08;12.25;;;10.70;99.90;;;;;;5037630;28;20736;-68
2023/12/17 09:14:28;;;;;;;14.27;11.52;;;10.70;99.90;;;;;;5045096;28;20240;-69
2023/12/17 09:16:55;;;;;;;12.20;10.88;;;10.60;99.90;;;;;;5039850;28;20240;-70
2023/12/17 09:19:22;;;;;;;15.48;11.77;;;10.60;99.90;;;;;;5038578;28;20247;-70
2023/12/17 09:21:49;;;;;;;13.60;11.40;;;10.60;99.90;;;;;;5038760;28;20200;-68
2023/12/17 09:24:16;;;;;;;14.80;11.68;;;10.60;99.90;;;;;;5039038;28;20291;-65
2023/12/17 09:26:43;;;;;;;14.02;10.80;;;10.60;99.90;;;;;;5042460;28;20651;-67
2023/12/17 09:29:10;;;;;;;9.32;8.43;;;10.60;99.90;;;;;;5034362;28;20201;-69
2023/12/17 09:31:39;;;;;;;9.75;8.77;;;10.60;99.90;;;;;;5044899;28;20280;-72
2023/12/17 09:34:06;;;;;;;10.50;8.85;;;10.70;99.90;;;;;;5040004;28;20200;-72
2023/12/17 09:36:33;;;;;;;10.77;9.40;;;10.70;99.90;;;;;;5037316;28;20228;-69
2023/12/17 09:39:00;;;;;;;13.63;8.63;;;10.60;99.90;;;;;;5041214;28;20269;-70
2023/12/17 09:41:27;;;;;;;9.82;8.60;;;10.70;99.90;;;;;;5044015;28;20197;-71
2023/12/17 09:43:53;;;;;;;12.52;9.48;;;10.70;99.90;;;;;;5042568;28;20197;-69
2023/12/17 09:46:21;;;;;;;8.40;7.30;;;10.70;99.90;;;;;;5047903;28;20219;-70
2023/12/17 09:48:49;;;;;;;13.82;9.10;;;10.60;99.90;;;;;;5045320;28;20248;-70
2023/12/17 09:51:16;;;;;;;10.82;9.30;;;10.70;99.90;;;;;;5034917;28;20224;-70
2023/12/17 09:53:44;;;;;;;10.52;8.65;;;10.70;99.90;;;;;;5048383;28;20210;-70
2023/12/17 09:56:12;;;;;;;12.15;8.25;;;10.70;99.90;;;;;;5036835;28;20205;-68
2023/12/17 09:58:39;;;;;;;17.45;11.20;;;10.70;99.90;;;;;;5040392;28;20236;-71
2023/12/17 10:01:06;;;;;;;10.90;8.25;;;10.70;99.90;;;;;;5034284;28;20193;-72
2023/12/17 10:03:33;;;;;;;10.45;9.40;;;10.70;99.90;;;;;;5037265;28;20204;-70
2023/12/17 10:06:04;;;;;;;9.98;8.43;;;10.70;99.90;;;;;;5038971;28;20209;-69
2023/12/17 10:08:32;;;;;;;9.75;8.15;;;10.80;99.90;;;;;;5038714;28;20204;-71
2023/12/17 10:10:59;;;;;;;10.02;8.00;;;10.80;99.90;;;;;;5047110;28;20243;-72
2023/12/17 10:13:26;;;;;;;11.32;8.50;;;10.80;99.90;;;;;;5040119;28;20663;-69
2023/12/17 10:15:54;;;;;;;12.38;8.60;;;10.70;99.90;;;;;;5049177;28;20204;-71
2023/12/17 10:18:22;;;;;;;9.93;7.80;;;10.70;99.90;;;;;;5045847;28;20197;-70
2023/12/17 10:20:50;;;;;;;13.15;9.30;;;10.70;99.90;;;;;;5044254;28;20249;-70
2023/12/17 10:23:19;;;;;;;10.57;7.80;;;10.80;99.90;;;;;;5039791;28;20740;-70
2023/12/17 10:25:46;;;;;;;11.13;7.78;;;10.80;99.90;;;;;;5045667;28;20290;-71
2023/12/17 10:28:14;;;;;;;10.68;8.77;;;10.80;99.90;;;;;;5049312;28;20392;-68
2023/12/17 10:30:42;;;;;;;12.10;9.50;;;10.80;99.90;;;;;;5036867;28;20644;-70
2023/12/17 10:33:14;;;;;;;13.88;10.35;;;10.90;99.90;;;;;;5051648;28;20236;-68
2023/12/17 10:35:44;;;;;;;16.27;10.48;;;10.90;99.90;;;;;;5046666;28;20212;-66
2023/12/17 10:38:13;;;;;;;13.90;9.75;;;10.80;99.90;;;;;;5044501;28;20232;-67
2023/12/17 10:40:42;;;;;;;17.30;11.43;;;10.80;99.90;;;;;;5045907;28;20199;-67
2023/12/17 10:43:12;;;;;;;15.60;10.32;;;10.90;99.90;;;;;;5050180;28;20707;-68
2023/12/17 10:45:42;;;;;;;18.45;11.15;;;10.90;99.90;;;;;;5049888;28;20270;-71
2023/12/17 10:48:12;;;;;;;16.13;10.23;;;10.90;99.90;;;;;;5052880;28;20263;-67
2023/12/17 10:50:40;;;;;;;15.98;9.50;;;10.90;99.90;;;;;;5038533;28;20702;-67
2023/12/17 10:53:07;;;;;;;18.30;13.25;;;11.00;99.90;;;;;;5050694;28;20667;-68
2023/12/17 10:55:34;;;;;;;18.27;12.07;;;11.00;99.90;;;;;;5051292;28;20231;-70
2023/12/17 10:58:06;;;;;;;19.88;12.25;;;11.10;99.90;;;;;;5036970;28;20220;-71
2023/12/17 11:00:34;;;;;;;22.88;12.77;;;11.10;99.90;;;;;;5040146;28;20196;-72
2023/12/17 11:03:06;;;;;;;17.00;12.45;;;11.20;99.90;;;;;;5042221;28;20231;-70
2023/12/17 11:05:33;;;;;;;18.02;12.63;;;11.20;99.90;;;;;;5039219;28;20219;-70
2023/12/17 11:08:00;;;;;;;17.70;13.02;;;11.20;99.90;;;;;;5044599;28;20259;-72
2023/12/17 11:10:27;;;;;;;19.23;12.80;;;11.20;99.90;;;;;;5049015;28;20212;-70
2023/12/17 11:12:55;;;;;;;18.45;12.75;;;11.30;99.90;;;;;;5047164;28;20201;-72
2023/12/17 11:15:25;;;;;;;19.20;13.00;;;11.20;99.90;;;;;;5044649;28;20205;-72
2023/12/17 11:17:54;;;;;;;17.40;12.82;;;11.30;99.90;;;;;;5047292;28;20311;-74
2023/12/17 11:20:20;;;;;;;15.27;10.80;;;11.20;99.90;;;;;;5045575;28;20244;-71
2023/12/17 11:22:47;;;;;;;18.70;12.32;;;11.10;99.90;;;;;;5052513;28;20242;-72
2023/12/17 11:25:16;;;;;;;22.10;13.13;;;11.10;99.90;;;;;;5037692;28;20205;-71
2023/12/17 11:27:46;;;;;;;18.98;12.48;;;11.20;99.90;;;;;;5049189;28;20277;-72
2023/12/17 11:30:30;;;;;;;20.45;14.00;;;11.10;99.90;;;;;;5046954;28;20331;-72
2023/12/17 11:32:59;;;;;;;19.67;12.30;;;11.10;99.90;;;;;;5048339;28;20204;-69
2023/12/17 11:35:27;;;;;;;20.55;14.15;;;11.30;99.90;;;;;;5048842;28;20197;-69
2023/12/17 11:37:55;;;;;;;18.48;12.55;;;11.30;99.90;;;;;;5048807;28;20698;-70
2023/12/17 11:40:22;;;;;;;21.48;13.82;;;11.20;99.90;;;;;;5045416;28;20216;-72
2023/12/17 11:43:02;;;;;;;20.67;14.50;;;11.20;99.90;;;;;;5045374;28;20623;-72
2023/12/17 11:45:36;;;;;;;19.20;13.57;;;11.10;99.90;;;;;;5049661;28;20211;-70
2023/12/17 11:48:09;;;;;;;18.70;12.65;;;11.10;99.90;;;;;;5047285;28;20232;-69
2023/12/17 11:50:43;;;;;;;20.75;14.23;;;11.10;99.90;;;;;;5036043;28;20657;-73
2023/12/17 11:53:12;;;;;;;18.23;12.27;;;11.10;99.90;;;;;;5036908;28;20283;-70
2023/12/17 11:55:43;;;;;;;20.42;13.80;;;11.10;99.90;;;;;;5038122;28;20244;-71
2023/12/17 11:58:10;;;;;;;17.42;13.15;;;11.10;99.90;;;;;;5044067;28;20220;-69
2023/12/17 12:00:39;;;;;;;21.58;13.00;;;11.10;99.90;;;;;;5049003;28;20262;-68
2023/12/17 12:03:06;;;;;;;14.85;12.00;;;11.10;99.90;;;;;;5049956;28;20623;-72
2023/12/17 12:05:33;;;;;;;19.02;11.73;;;11.10;99.90;;;;;;5043030;28;20204;-70
2023/12/17 12:08:00;;;;;;;16.88;13.40;;;11.10;99.90;;;;;;5041634;28;20764;-73
2023/12/17 12:10:28;;;;;;;18.63;13.45;;;11.20;99.90;;;;;;5044425;28;20269;-72
2023/12/17 12:13:03;;;;;;;17.17;13.50;;;11.20;99.90;;;;;;5049652;28;20273;-72
2023/12/17 12:15:30;;;;;;;17.23;13.57;;;11.10;99.90;;;;;;5034154;28;20201;-73
2023/12/17 12:17:58;;;;;;;17.38;12.40;;;11.10;99.90;;;;;;5039328;28;20290;-70
2023/12/17 12:20:37;;;;;;;21.17;14.10;;;11.10;99.90;;;;;;5044003;28;20205;-71
2023/12/17 12:23:10;;;;;;;19.92;15.25;;;11.10;99.90;;;;;;5047464;28;20195;-75
2023/12/17 12:25:38;;;;;;;17.83;13.07;;;11.10;99.90;;;;;;5035198;28;20300;-69
2023/12/17 12:28:07;;;;;;;17.65;13.45;;;11.10;99.90;;;;;;5039777;28;20224;-73
2023/12/17 12:30:34;;;;;;;19.08;12.80;;;11.10;99.90;;;;;;5037514;28;20239;-72
2023/12/17 12:33:13;;;;;;;18.95;14.85;;;11.20;99.90;;;;;;5049458;28;20200;-69